Time;durP1;ratioP1;P1;durP2;ratioP2;P2;SDS_P1;SDS_P2;PMS_P1;PMS_P2;Temp;Humidity;BMP_temperature;BMP_pressure;BME280_temperature;BME280_humidity;BME280_pressure;Samples;Min_cycle;Max_cycle;Signal;HPM_P1;HPM_P2
2023/07/14 00:01:25;;;;;;;11.45;10.35;;;;;;;15.00;96.12;101701.91;6192004;23;20438;-69
2023/07/14 00:03:50;;;;;;;11.05;9.98;;;;;;;15.02;96.28;101696.59;6242346;23;20004;-69
2023/07/14 00:06:17;;;;;;;11.38;10.13;;;;;;;15.03;96.05;101701.00;6218452;23;20091;-69
2023/07/14 00:08:43;;;;;;;10.00;8.93;;;;;;;14.97;96.00;101711.63;6217131;23;20016;-69
2023/07/14 00:11:23;;;;;;;10.57;9.57;;;;;;;15.07;95.78;101714.09;6217348;23;20022;-69
2023/07/14 00:13:51;;;;;;;11.38;10.00;;;;;;;15.01;95.77;101692.19;6217504;23;20353;-69
2023/07/14 00:16:22;;;;;;;11.00;9.85;;;;;;;15.13;95.37;101701.69;6217586;23;20036;-69
2023/07/14 00:18:48;;;;;;;10.20;9.20;;;;;;;15.09;95.35;101692.09;6243975;22;20058;-69
2023/07/14 00:21:23;;;;;;;10.30;9.30;;;;;;;15.10;95.21;101697.34;6217537;23;20091;-69
2023/07/14 00:23:52;;;;;;;10.55;9.10;;;;;;;15.00;94.59;101687.84;6242174;23;20069;-69
2023/07/14 00:26:20;;;;;;;9.38;8.52;;;;;;;14.99;94.88;101681.69;6243131;23;20000;-69
2023/07/14 00:28:49;;;;;;;10.13;9.05;;;;;;;14.95;95.11;101692.31;6242326;23;20011;-69
2023/07/14 00:31:17;;;;;;;10.30;9.20;;;;;;;14.93;95.38;101687.06;6217718;23;20012;-70
2023/07/14 00:33:45;;;;;;;10.35;9.35;;;;;;;14.99;94.94;101694.00;6242289;23;20008;-70
2023/07/14 00:36:12;;;;;;;12.75;10.38;;;;;;;14.89;96.63;101688.88;6242490;23;20032;-69
2023/07/14 00:38:38;;;;;;;11.73;10.00;;;;;;;14.84;96.42;101688.09;6241618;23;20099;-70
2023/07/14 00:41:09;;;;;;;13.63;10.27;;;;;;;14.80;97.21;101691.66;6242642;23;20107;-69
2023/07/14 00:43:35;;;;;;;10.45;9.45;;;;;;;14.80;97.12;101691.66;6242563;23;20464;-70
2023/07/14 00:46:01;;;;;;;11.40;10.30;;;;;;;14.75;97.58;101687.34;6244943;22;19996;-69
2023/07/14 00:48:29;;;;;;;11.65;9.93;;;;;;;14.61;97.54;101679.63;6243839;23;20482;-69
2023/07/14 00:51:03;;;;;;;10.80;9.70;;;;;;;14.66;97.54;101683.09;6244785;23;20098;-69
2023/07/14 00:53:38;;;;;;;11.70;10.27;;;;;;;14.62;98.03;101676.97;6244701;23;20015;-69
2023/07/14 00:56:10;;;;;;;10.40;9.45;;;;;;;14.48;97.90;101679.81;6244481;23;20097;-69
2023/07/14 00:58:37;;;;;;;13.75;11.07;;;;;;;14.41;98.07;101670.25;6244103;23;20011;-69
2023/07/14 01:01:08;;;;;;;12.18;10.98;;;;;;;14.29;98.42;101670.41;6244719;23;20000;-70
2023/07/14 01:03:39;;;;;;;13.20;11.75;;;;;;;14.36;99.21;101672.94;6243977;23;20008;-69
2023/07/14 01:06:08;;;;;;;12.15;10.90;;;;;;;14.38;99.48;101670.31;6244717;23;20034;-69
2023/07/14 01:08:38;;;;;;;13.73;11.77;;;;;;;14.37;100.00;101671.19;6244003;23;20426;-69
2023/07/14 01:11:03;;;;;;;;;;;;;;;14.49;97.56;101665.72;6245120;23;20012;-69
2023/07/14 01:13:30;;;;;;;15.65;11.52;;;;;;;14.41;99.65;101667.63;6218347;23;19957;-69
2023/07/14 01:15:56;;;;;;;13.48;12.07;;;;;;;14.40;100.00;101663.22;6219214;23;20011;-69
2023/07/14 01:18:22;;;;;;;13.57;12.25;;;;;;;14.40;100.00;101663.22;6218627;23;20020;-69
2023/07/14 01:20:48;;;;;;;13.20;11.82;;;;;;;14.40;100.00;101665.88;6244394;23;20434;-69
2023/07/14 01:23:16;;;;;;;14.88;11.85;;;;;;;14.42;100.00;101657.94;6219424;23;20015;-69
2023/07/14 01:26:02;;;;;;;13.35;11.82;;;;;;;14.47;100.00;101662.25;6243516;23;20004;-69
2023/07/14 01:28:27;;;;;;;12.55;11.15;;;;;;;14.45;99.68;101664.03;6244459;23;20428;-69
2023/07/14 01:30:53;;;;;;;11.98;10.85;;;;;;;14.49;99.85;101660.44;6218506;23;20012;-69
2023/07/14 01:33:18;;;;;;;13.18;11.88;;;;;;;14.44;99.86;101650.84;6193422;23;20074;-69
2023/07/14 01:35:58;;;;;;;13.30;11.90;;;;;;;14.44;100.00;101651.75;6243491;23;20008;-69
2023/07/14 01:38:24;;;;;;;13.07;11.20;;;;;;;14.48;100.00;101644.63;6244260;23;20012;-69
2023/07/14 01:40:51;;;;;;;13.77;11.73;;;;;;;14.46;100.00;101639.38;6242457;23;20087;-69
2023/07/14 01:43:16;;;;;;;12.55;10.82;;;;;;;14.55;100.00;101644.53;6218927;23;20012;-69
2023/07/14 01:46:07;;;;;;;12.90;11.63;;;;;;;14.50;100.00;101641.09;6243902;23;20023;-70
2023/07/14 01:48:52;;;;;;;14.82;10.85;;;;;;;14.55;99.97;101649.81;6243564;23;20007;-69
2023/07/14 01:51:18;;;;;;;11.52;10.32;;;;;;;14.60;99.52;101655.00;6244021;23;20011;-69
2023/07/14 01:53:56;;;;;;;12.45;11.25;;;;;;;14.48;100.00;101647.28;6242836;23;20046;-69
2023/07/14 01:56:24;;;;;;;12.23;11.00;;;;;;;14.55;100.00;101652.44;6243884;23;20008;-69
2023/07/14 01:59:06;;;;;;;11.80;10.05;;;;;;;14.58;99.94;101653.28;6242885;23;20036;-69
2023/07/14 02:01:32;;;;;;;11.40;10.25;;;;;;;14.58;99.59;101650.66;6242880;23;20078;-69
2023/07/14 02:04:04;;;;;;;11.93;10.18;;;;;;;14.61;99.37;101647.97;6218118;23;20418;-69
2023/07/14 02:06:30;;;;;;;12.10;10.48;;;;;;;14.60;99.19;101641.81;6244093;23;20035;-69
2023/07/14 02:08:56;;;;;;;11.60;10.43;;;;;;;14.60;99.01;101646.25;6192450;23;20034;-69
2023/07/14 02:11:26;;;;;;;11.35;10.20;;;;;;;14.52;99.25;101643.69;6218615;23;20046;-69
2023/07/14 02:13:55;;;;;;;12.55;9.77;;;;;;;14.54;99.07;101647.19;6218845;23;20307;-69
2023/07/14 02:16:21;;;;;;;10.85;9.20;;;;;;;14.47;98.41;101641.13;6245547;22;20004;-70
2023/07/14 02:18:48;;;;;;;11.48;9.82;;;;;;;14.47;98.50;101637.66;6242880;23;20023;-69
2023/07/14 02:21:20;;;;;;;12.20;10.20;;;;;;;14.49;98.82;101638.47;6243731;23;20011;-69
2023/07/14 02:23:48;;;;;;;11.95;9.93;;;;;;;14.50;98.81;101633.19;6242818;23;20008;-69
2023/07/14 02:26:22;;;;;;;14.70;9.82;;;;;;;14.48;98.66;101626.19;6243554;23;19996;-69
2023/07/14 02:28:48;;;;;;;11.70;9.70;;;;;;;14.40;98.18;101628.94;6243068;23;20004;-69
2023/07/14 02:31:29;;;;;;;11.25;9.48;;;;;;;14.45;98.11;101632.41;6192502;23;20023;-69
2023/07/14 02:33:55;;;;;;;14.45;10.52;;;;;;;14.42;97.52;101628.91;6242882;23;20011;-69
2023/07/14 02:36:25;;;;;;;11.38;9.60;;;;;;;14.39;97.42;101627.19;6192994;23;20012;-69
2023/07/14 02:38:55;;;;;;;12.80;9.32;;;;;;;14.40;97.53;101628.09;6242329;23;20094;-69
2023/07/14 02:41:27;;;;;;;10.63;9.53;;;;;;;14.42;97.47;101626.28;6217835;23;20093;-69
2023/07/14 02:43:56;;;;;;;11.52;10.18;;;;;;;14.37;97.95;101635.13;6242660;23;20442;-69
2023/07/14 02:46:40;;;;;;;13.75;9.75;;;;;;;14.37;97.97;101632.50;6242828;23;20004;-69
2023/07/14 02:49:06;;;;;;;13.80;9.13;;;;;;;14.37;97.51;101634.28;6242368;23;20000;-69
2023/07/14 02:51:32;;;;;;;11.63;10.35;;;;;;;14.35;98.50;101639.56;6241997;23;20007;-69
2023/07/14 02:53:57;;;;;;;11.80;9.23;;;;;;;14.42;97.99;101632.41;6241693;23;20008;-69
2023/07/14 02:56:22;;;;;;;11.25;9.70;;;;;;;14.38;97.63;101630.75;6217241;23;20015;-69
2023/07/14 02:58:49;;;;;;;9.88;8.85;;;;;;;14.38;96.92;101628.13;6242441;23;20105;-69
2023/07/14 03:01:17;;;;;;;11.00;9.90;;;;;;;14.27;97.80;101625.63;6217382;23;20330;-70
2023/07/14 03:03:44;;;;;;;13.05;10.15;;;;;;;14.26;97.96;101620.38;6216896;23;20353;-69
2023/07/14 03:06:12;;;;;;;12.27;9.90;;;;;;;14.30;97.92;101624.72;6217401;23;20100;-69
2023/07/14 03:08:38;;;;;;;12.13;9.45;;;;;;;14.27;97.85;101627.41;6216178;23;20008;-69
2023/07/14 03:11:03;;;;;;;11.85;9.68;;;;;;;14.31;97.72;101635.22;6216955;23;20019;-69
2023/07/14 03:13:29;;;;;;;10.15;9.10;;;;;;;14.17;97.49;101614.34;6242523;23;20015;-69
2023/07/14 03:15:54;;;;;;;9.85;8.88;;;;;;;14.20;97.80;101616.91;6216865;23;20008;-69
2023/07/14 03:18:20;;;;;;;10.70;9.40;;;;;;;14.19;98.04;101617.84;6191427;23;20015;-69
2023/07/14 03:20:46;;;;;;;11.48;9.32;;;;;;;14.17;98.46;101614.34;6216487;23;20007;-69
2023/07/14 03:23:11;;;;;;;11.40;9.50;;;;;;;14.14;97.91;101611.75;6242133;23;20012;-69
2023/07/14 03:25:36;;;;;;;14.80;9.68;;;;;;;14.22;97.51;101603.72;6216434;23;20004;-69
2023/07/14 03:28:03;;;;;;;10.27;9.05;;;;;;;14.17;98.46;101610.84;6216875;23;20422;-69
2023/07/14 03:30:31;;;;;;;12.35;9.05;;;;;;;14.18;98.67;101609.94;6216038;23;20011;-71
2023/07/14 03:32:56;;;;;;;11.18;9.32;;;;;;;14.18;97.98;101602.91;6241464;23;20008;-70
2023/07/14 03:35:22;;;;;;;11.40;9.20;;;;;;;14.24;97.83;101606.31;6216437;23;20022;-71
2023/07/14 03:37:48;;;;;;;9.90;8.88;;;;;;;14.16;98.14;101609.09;6216843;23;20015;-71
2023/07/14 03:40:13;;;;;;;11.20;9.40;;;;;;;14.13;98.39;101604.72;6215817;23;20078;-71
2023/07/14 03:42:41;;;;;;;9.90;8.90;;;;;;;14.21;nan;101607.25;6241851;23;20361;-70
2023/07/14 03:45:07;;;;;;;10.68;9.25;;;;;;;14.10;98.82;101602.13;6242404;23;20441;-71
2023/07/14 03:47:33;;;;;;;11.75;9.27;;;;;;;14.19;98.69;101601.13;6216527;23;20016;-71
2023/07/14 03:49:58;;;;;;;14.93;10.05;;;;;;;14.21;98.82;101597.59;6217029;23;20333;-71
2023/07/14 03:52:24;;;;;;;12.65;9.13;;;;;;;14.22;99.29;101590.53;6216509;23;20008;-71
2023/07/14 03:54:49;;;;;;;11.23;9.93;;;;;;;14.18;99.30;101581.81;6191317;23;20315;-70
2023/07/14 03:57:15;;;;;;;13.50;10.30;;;;;;;14.29;99.19;101588.69;6216960;23;20389;-71
2023/07/14 03:59:41;;;;;;;10.52;9.60;;;;;;;14.37;98.73;101586.81;6192019;23;20011;-71
2023/07/14 04:02:08;;;;;;;10.10;9.10;;;;;;;14.38;98.68;101597.34;6213303;23;20063;-70
2023/07/14 04:04:34;;;;;;;11.25;9.43;;;;;;;14.39;97.99;101600.81;6216639;23;20008;-70
2023/07/14 04:07:00;;;;;;;11.05;9.52;;;;;;;14.42;97.60;101589.38;6191926;23;20042;-70
2023/07/14 04:09:26;;;;;;;13.73;10.00;;;;;;;14.44;97.62;101593.72;6191353;23;20095;-71
2023/07/14 04:11:51;;;;;;;10.65;9.55;;;;;;;14.47;97.54;101593.69;6216061;23;20012;-71
2023/07/14 04:14:17;;;;;;;11.02;9.30;;;;;;;14.47;97.32;101592.81;6191683;23;20019;-71
2023/07/14 04:16:42;;;;;;;11.63;9.52;;;;;;;14.67;97.23;101595.16;6217063;23;20019;-71
2023/07/14 04:19:08;;;;;;;11.35;9.05;;;;;;;14.76;96.30;101589.72;6191033;23;20015;-71
2023/07/14 04:21:33;;;;;;;9.90;8.90;;;;;;;14.74;95.96;101583.59;6217571;23;20011;-71
2023/07/14 04:23:59;;;;;;;10.77;8.50;;;;;;;14.69;96.21;101596.00;6243505;23;20406;-71
2023/07/14 04:26:27;;;;;;;10.00;8.82;;;;;;;14.62;96.38;101589.94;6219178;23;20011;-71
2023/07/14 04:28:53;;;;;;;10.45;9.00;;;;;;;14.68;97.09;101586.31;6244055;23;20014;-71
2023/07/14 04:31:18;;;;;;;13.10;8.93;;;;;;;14.88;95.93;101584.22;6241281;23;20016;-71
2023/07/14 04:33:49;;;;;;;11.63;9.68;;;;;;;14.97;95.80;101580.56;6242038;23;20004;-71
2023/07/14 04:36:15;;;;;;;10.10;9.05;;;;;;;15.17;94.22;101581.94;6217257;23;20066;-71
2023/07/14 04:38:42;;;;;;;11.35;9.05;;;;;;;15.11;93.42;101580.28;6239608;23;20012;-71
2023/07/14 04:41:11;;;;;;;13.43;8.90;;;;;;;14.99;93.88;101577.88;6216639;23;20434;-70
2023/07/14 04:43:37;;;;;;;12.23;9.07;;;;;;;14.88;94.46;101581.59;6243934;23;20027;-71
2023/07/14 04:46:02;;;;;;;11.63;8.52;;;;;;;14.79;95.11;101584.38;6218321;23;20004;-71
2023/07/14 04:48:28;;;;;;;10.13;8.85;;;;;;;14.74;95.52;101586.25;6217197;23;20012;-71
2023/07/14 04:50:53;;;;;;;9.45;8.27;;;;;;;14.74;95.67;101588.88;6218389;23;20019;-71
2023/07/14 04:53:19;;;;;;;11.57;8.70;;;;;;;14.70;95.70;101582.78;6243789;23;20091;-71
2023/07/14 04:55:46;;;;;;;9.48;8.02;;;;;;;14.66;95.48;101582.84;6217902;23;20024;-71
2023/07/14 04:58:14;;;;;;;10.88;8.20;;;;;;;14.67;96.03;101587.25;6218040;23;20375;-69
2023/07/14 05:00:45;;;;;;;9.63;8.00;;;;;;;14.66;95.69;101588.13;6242964;23;20057;-69
2023/07/14 05:03:10;;;;;;;10.27;8.40;;;;;;;14.68;96.11;101589.84;6241486;23;20330;-69
2023/07/14 05:05:36;;;;;;;10.00;8.15;;;;;;;14.71;95.83;101584.53;6217919;23;20004;-69
2023/07/14 05:08:02;;;;;;;10.38;7.85;;;;;;;14.69;96.05;101580.16;6243782;23;20008;-69
2023/07/14 05:10:29;;;;;;;11.57;8.73;;;;;;;14.72;95.92;101588.91;6242603;23;20394;-69
2023/07/14 05:12:56;;;;;;;10.95;8.15;;;;;;;14.73;95.85;101589.78;6242962;23;20004;-69
2023/07/14 05:15:24;;;;;;;10.30;7.85;;;;;;;14.73;95.63;101584.50;6244620;22;20307;-69
2023/07/14 05:17:52;;;;;;;10.77;8.35;;;;;;;14.80;95.11;101582.63;6216743;23;20095;-69
2023/07/14 05:20:24;;;;;;;9.27;7.65;;;;;;;14.85;94.74;101571.06;6218100;23;20012;-69
2023/07/14 05:22:51;;;;;;;8.52;7.25;;;;;;;15.92;92.46;101580.41;6218388;23;20066;-69
2023/07/14 05:25:17;;;;;;;9.77;6.90;;;;;;;16.69;87.52;101566.25;6192131;23;20008;-69
2023/07/14 05:27:44;;;;;;;8.18;6.50;;;;;;;17.34;84.40;101580.44;6241656;23;20541;-70
2023/07/14 05:30:12;;;;;;;7.72;5.97;;;;;;;18.15;80.64;101575.38;6241481;23;20019;-69
2023/07/14 05:32:38;;;;;;;7.80;5.88;;;;;;;18.89;76.44;101577.38;6242266;23;20004;-69
2023/07/14 05:35:03;;;;;;;7.65;5.82;;;;;;;18.61;74.27;101574.81;6242591;23;20004;-69
2023/07/14 05:37:29;;;;;;;9.45;5.75;;;;;;;18.80;75.20;101578.53;6216563;23;20015;-69
2023/07/14 05:39:55;;;;;;;7.88;5.57;;;;;;;19.89;73.27;101586.16;6215282;23;20782;-69
2023/07/14 05:42:20;;;;;;;8.75;5.90;;;;;;;20.11;70.74;101583.53;6215984;23;20095;-69
2023/07/14 05:44:46;;;;;;;8.32;5.78;;;;;;;20.13;69.01;101589.66;6218372;23;20004;-69
2023/07/14 05:47:12;;;;;;;8.45;5.25;;;;;;;19.97;70.59;101581.44;6216044;23;20019;-69
2023/07/14 05:49:37;;;;;;;7.18;5.28;;;;;;;19.40;71.02;101580.91;6217804;23;20008;-69
2023/07/14 05:52:03;;;;;;;8.13;5.25;;;;;;;19.16;71.05;101574.69;6217524;23;20010;-69
2023/07/14 05:54:29;;;;;;;9.20;5.40;;;;;;;18.90;73.28;101572.97;6217270;23;20019;-69
2023/07/14 05:56:55;;;;;;;7.35;5.60;;;;;;;18.87;74.65;101573.94;6242937;23;20012;-70
2023/07/14 05:59:21;;;;;;;8.70;5.20;;;;;;;19.77;72.17;101575.97;6241306;23;20030;-70
2023/07/14 06:01:47;;;;;;;8.02;4.72;;;;;;;20.59;68.43;101577.13;6241182;23;20008;-69
2023/07/14 06:04:14;;;;;;;8.27;4.63;;;;;;;20.50;66.44;101581.94;6191830;23;20323;-70
2023/07/14 06:06:39;;;;;;;7.25;4.03;;;;;;;20.52;65.11;101580.13;6243021;23;19996;-69
2023/07/14 06:09:05;;;;;;;8.43;4.40;;;;;;;20.40;64.75;101576.13;6191455;23;20031;-69
2023/07/14 06:11:31;;;;;;;10.35;4.18;;;;;;;20.20;65.05;101588.47;6242073;23;20423;-69
2023/07/14 06:13:57;;;;;;;9.38;4.65;;;;;;;19.90;66.07;101586.13;6242938;23;20339;-69
2023/07/14 06:16:22;;;;;;;8.18;3.63;;;;;;;19.62;66.37;101580.09;6217656;23;20107;-69
2023/07/14 06:18:49;;;;;;;6.82;3.50;;;;;;;19.50;69.39;101582.28;6217442;23;20008;-70
2023/07/14 06:21:14;;;;;;;7.30;3.78;;;;;;;19.20;69.77;101579.81;6216355;23;20442;-70
2023/07/14 06:23:40;;;;;;;6.30;3.53;;;;;;;18.97;69.90;101580.66;6216211;23;20091;-69
2023/07/14 06:26:06;;;;;;;7.85;3.35;;;;;;;18.73;70.10;101581.47;6242818;23;20066;-69
2023/07/14 06:28:31;;;;;;;6.68;3.38;;;;;;;18.48;68.45;101575.19;6243179;23;20011;-70
2023/07/14 06:30:58;;;;;;;6.38;3.72;;;;;;;18.39;70.18;101571.97;6217452;23;20008;-70
2023/07/14 06:33:24;;;;;;;7.75;3.25;;;;;;;18.36;71.33;101583.59;6242349;23;20003;-70
2023/07/14 06:35:50;;;;;;;6.05;3.70;;;;;;;18.61;71.08;101573.00;6242709;23;20361;-70
2023/07/14 06:38:16;;;;;;;5.55;3.25;;;;;;;19.43;69.78;101566.63;6217515;23;20004;-70
2023/07/14 06:40:41;;;;;;;5.82;3.22;;;;;;;19.92;64.40;101572.75;6220159;22;20264;-69
2023/07/14 06:43:09;;;;;;;5.78;3.25;;;;;;;19.81;64.90;101575.84;6197225;22;20436;-69
2023/07/14 06:45:35;;;;;;;5.43;3.33;;;;;;;19.61;65.82;101568.59;6247814;22;20022;-70
2023/07/14 06:48:02;;;;;;;5.57;3.17;;;;;;;19.28;65.99;101578.69;6247456;22;20061;-69
2023/07/14 06:50:27;;;;;;;8.95;3.38;;;;;;;19.02;65.72;101573.41;6247456;22;20046;-69
2023/07/14 06:52:53;;;;;;;7.55;3.00;;;;;;;18.91;66.61;101575.56;6222156;22;20008;-69
2023/07/14 07:54:45;;;;;;;5.03;2.58;;;;;;;18.81;65.07;101523.69;6228893;22;20038;-68
2023/07/14 07:57:11;;;;;;;5.35;2.58;;;;;;;18.86;64.52;101519.03;6190255;23;20047;-69
2023/07/14 07:59:37;;;;;;;4.63;2.72;;;;;;;18.96;67.42;101515.16;6217173;23;20000;-69
2023/07/14 08:02:03;;;;;;;5.85;2.97;;;;;;;19.12;65.96;101522.59;6166362;23;20015;-69
2023/07/14 08:04:29;;;;;;;5.80;2.78;;;;;;;19.23;64.49;101522.19;6216472;23;20004;-69
2023/07/14 08:06:55;;;;;;;4.70;2.88;;;;;;;19.25;63.32;101523.88;6191874;23;20015;-70
2023/07/14 08:09:20;;;;;;;6.32;3.30;;;;;;;19.29;64.43;101525.47;6196094;22;20081;-69
2023/07/14 08:11:46;;;;;;;6.85;3.30;;;;;;;19.51;66.91;101517.56;6222094;22;20012;-69
2023/07/14 08:14:15;;;;;;;7.35;3.22;;;;;;;19.46;64.16;101513.34;6221750;22;20007;-69
2023/07/14 08:16:41;;;;;;;4.72;2.45;;;;;;;19.39;62.50;101518.91;6221651;22;20433;-69
2023/07/14 08:19:07;;;;;;;4.03;2.60;;;;;;;19.40;63.69;101519.78;6221455;22;20031;-69
2023/07/14 08:21:32;;;;;;;5.38;2.95;;;;;;;19.44;63.48;101513.41;6197078;22;20008;-69
2023/07/14 08:23:58;;;;;;;5.88;3.30;;;;;;;19.59;64.99;101514.59;6195881;22;20012;-69
2023/07/14 08:26:24;;;;;;;7.97;3.88;;;;;;;19.46;64.47;101513.34;6221669;22;20035;-68
2023/07/14 08:28:49;;;;;;;6.68;2.97;;;;;;;19.34;61.80;101509.38;6246869;22;20004;-68
2023/07/14 08:31:15;;;;;;;5.47;2.83;;;;;;;19.33;62.96;101515.63;6222078;22;20046;-68
2023/07/14 08:33:43;;;;;;;4.85;2.42;;;;;;;19.33;63.83;101519.13;6196145;22;20010;-68
2023/07/14 08:36:11;;;;;;;5.78;2.88;;;;;;;19.39;64.21;101516.25;6222270;22;20440;-68
2023/07/14 08:38:38;;;;;;;5.60;2.85;;;;;;;19.36;65.21;101515.50;6246019;22;20421;-68
2023/07/14 08:41:20;;;;;;;7.10;3.22;;;;;;;19.30;64.85;101513.06;6247150;22;20004;-68
2023/07/14 08:44:21;;;;;;;7.75;3.00;;;;;;;19.26;64.47;101517.63;6247036;22;20008;-68
2023/07/14 08:47:07;;;;;;;8.02;2.83;;;;;;;19.13;63.92;101511.91;6247011;22;20003;-68
2023/07/14 08:49:45;;;;;;;5.57;2.85;;;;;;;18.97;64.23;101500.97;6246439;22;20003;-68
2023/07/14 08:52:35;;;;;;;6.60;3.05;;;;;;;19.00;64.03;101511.47;6245668;22;20414;-69
2023/07/14 08:55:32;;;;;;;5.60;2.70;;;;;;;18.99;64.15;101508.88;6245705;22;20434;-68
2023/07/14 08:58:09;;;;;;;5.82;2.72;;;;;;;19.02;64.66;101508.75;6215214;22;20031;-68
2023/07/14 09:00:46;;;;;;;4.30;2.35;;;;;;;19.06;62.72;101504.22;6246243;22;20104;-68
2023/07/14 09:03:17;;;;;;;7.05;2.95;;;;;;;19.12;62.42;101509.31;6246307;22;20012;-68
2023/07/14 09:05:53;;;;;;;7.40;2.80;;;;;;;19.44;63.75;101499.25;6246872;22;20006;-68
2023/07/14 09:08:24;;;;;;;3.50;2.38;;;;;;;19.61;61.89;101494.16;6248680;22;20013;-68
2023/07/14 09:11:05;;;;;;;8.10;3.35;;;;;;;19.83;62.00;101501.31;6247526;22;20004;-68
2023/07/14 09:13:48;;;;;;;6.57;2.63;;;;;;;19.93;60.88;101496.50;6248802;22;20359;-68
2023/07/14 09:16:18;;;;;;;5.57;2.35;;;;;;;20.25;61.79;101493.34;6248456;22;20083;-68
2023/07/14 09:18:45;;;;;;;;;;;;;;;20.47;61.37;101484.44;6248782;22;20090;-68
2023/07/14 09:21:13;;;;;;;5.95;3.40;;;;;;;20.57;61.87;101487.59;6248431;22;19945;-69
2023/07/14 09:24:01;;;;;;;6.97;3.20;;;;;;;20.52;60.57;101478.94;6247842;22;20014;-68
2023/07/14 09:26:37;;;;;;;5.95;2.95;;;;;;;20.45;60.15;101477.47;6248767;22;20000;-69
2023/07/14 09:29:14;;;;;;;6.38;3.40;;;;;;;20.62;62.18;101480.28;6248491;22;20030;-68
2023/07/14 09:31:46;;;;;;;6.85;2.90;;;;;;;20.83;60.34;101477.63;6248089;22;20018;-69
2023/07/14 09:34:25;;;;;;;6.20;3.00;;;;;;;20.88;59.59;101483.59;6247868;22;20083;-68
2023/07/14 09:36:51;;;;;;;5.78;2.83;;;;;;;20.75;58.75;101473.50;6248378;22;20090;-68
2023/07/14 09:39:35;;;;;;;5.97;2.60;;;;;;;20.93;60.38;101471.81;6197567;22;20007;-69
2023/07/14 09:42:04;;;;;;;6.95;2.72;;;;;;;20.94;58.83;101467.34;6248037;22;20011;-69
2023/07/14 09:44:30;;;;;;;9.35;2.70;;;;;;;21.01;58.63;101466.13;6248428;22;20008;-69
2023/07/14 09:46:58;;;;;;;5.35;3.03;;;;;;;21.13;58.70;101463.84;6222848;22;20023;-69
2023/07/14 09:49:59;;;;;;;4.72;2.80;;;;;;;21.35;57.51;101455.69;6223369;22;20018;-69
2023/07/14 09:52:28;;;;;;;6.50;2.90;;;;;;;21.32;58.79;101448.72;6073529;23;20494;-68
2023/07/14 09:54:57;;;;;;;6.82;2.80;;;;;;;21.49;57.66;101452.38;6225625;22;20024;-69
2023/07/14 09:57:28;;;;;;;6.65;2.60;;;;;;;21.63;56.59;101441.94;6248284;22;20004;-69
2023/07/14 09:59:55;;;;;;;10.02;2.55;;;;;;;21.62;56.83;101446.41;6248376;22;20441;-69
2023/07/14 10:02:27;;;;;;;6.15;2.47;;;;;;;21.55;55.40;101453.00;6247508;22;20007;-69
2023/07/14 10:04:59;;;;;;;5.45;3.17;;;;;;;21.72;57.59;101446.84;6247192;22;20004;-69
2023/07/14 10:07:25;;;;;;;4.65;2.67;;;;;;;21.64;55.73;101438.34;6248175;22;20003;-69
2023/07/14 10:09:58;;;;;;;4.05;2.42;;;;;;;21.72;56.98;101436.16;6247606;22;20049;-69
2023/07/14 10:12:25;;;;;;;5.35;2.50;;;;;;;21.76;58.33;101436.88;6248680;22;20030;-69
2023/07/14 10:14:51;;;;;;;7.05;2.72;;;;;;;21.72;55.57;101433.50;6221872;22;20011;-69
2023/07/14 10:17:25;;;;;;;7.57;2.50;;;;;;;21.71;55.75;101421.09;6247372;22;20338;-69
2023/07/14 10:19:51;;;;;;;5.47;2.38;;;;;;;21.67;56.17;101411.50;6247714;22;20042;-68
2023/07/14 10:22:22;;;;;;;6.15;2.97;;;;;;;21.68;56.53;101418.59;6222831;22;20096;-68
2023/07/14 10:24:56;;;;;;;6.03;2.55;;;;;;;21.76;57.16;101404.84;6246944;22;20007;-68
2023/07/14 10:27:28;;;;;;;6.40;2.90;;;;;;;21.84;57.93;101405.34;6247758;22;20118;-69
2023/07/14 10:30:06;;;;;;;5.07;2.90;;;;;;;21.84;56.70;101407.13;6248055;22;20026;-68
2023/07/14 10:32:31;;;;;;;5.47;3.10;;;;;;;21.82;57.15;101403.69;6247348;22;20031;-68
2023/07/14 10:34:58;;;;;;;4.20;2.55;;;;;;;21.78;57.21;101395.84;6247208;22;20334;-69
2023/07/14 10:37:32;;;;;;;8.60;2.90;;;;;;;21.96;56.51;101388.69;6247643;22;20373;-69
2023/07/14 10:40:01;;;;;;;6.70;2.80;;;;;;;21.98;56.25;101385.97;6274580;22;20019;-69
2023/07/14 10:42:31;;;;;;;5.38;2.45;;;;;;;21.92;55.83;101386.28;6247956;22;20003;-69
2023/07/14 10:44:58;;;;;;;5.50;2.72;;;;;;;21.93;55.25;101380.84;6247688;22;20006;-69
2023/07/14 10:47:49;;;;;;;5.30;2.47;;;;;;;22.08;56.51;101371.22;6247467;22;19999;-69
2023/07/14 10:50:18;;;;;;;4.72;3.00;;;;;;;22.13;55.31;101371.81;6181444;22;20003;-69
2023/07/14 10:52:49;;;;;;;5.70;2.83;;;;;;;21.95;54.48;101373.66;6248087;22;20095;-69
2023/07/14 10:55:26;;;;;;;6.93;2.60;;;;;;;22.09;55.09;101369.41;6245821;22;20425;-69
2023/07/14 10:57:57;;;;;;;5.60;2.85;;;;;;;21.96;54.95;101369.16;6246590;22;20004;-68
2023/07/14 11:00:35;;;;;;;4.80;2.65;;;;;;;22.22;54.75;101358.94;6247661;22;20089;-68
2023/07/14 11:03:13;;;;;;;6.90;3.10;;;;;;;22.35;55.57;101356.53;6274366;22;20015;-68
2023/07/14 11:05:44;;;;;;;6.40;2.45;;;;;;;22.32;53.97;101362.84;6246588;22;20061;-68
2023/07/14 11:08:10;;;;;;;5.28;2.50;;;;;;;22.24;52.41;101352.59;6247467;22;20031;-68
2023/07/14 11:10:45;;;;;;;4.22;2.67;;;;;;;22.14;53.24;101359.34;6246771;22;20004;-69
2023/07/14 11:13:28;;;;;;;3.90;2.58;;;;;;;22.17;54.47;101363.66;6274751;22;20416;-69
2023/07/14 11:16:00;;;;;;;4.68;2.70;;;;;;;22.12;54.65;101353.22;6246796;22;20042;-69
2023/07/14 11:18:33;;;;;;;3.90;2.22;;;;;;;22.20;55.72;101355.50;6246595;22;20406;-68
2023/07/14 11:21:40;;;;;;;4.20;2.00;;;;;;;22.38;55.25;101346.53;6247534;22;20342;-68
2023/07/14 11:24:23;;;;;;;4.53;2.10;;;;;;;22.47;54.92;101345.19;6173607;22;20030;-68
2023/07/14 11:27:26;;;;;;;4.18;2.20;;;;;;;22.63;53.86;101350.56;6247587;22;20338;-68
2023/07/14 11:30:14;;;;;;;9.25;2.95;;;;;;;22.59;53.32;101319.63;6247208;22;20007;-68
2023/07/14 11:33:10;;;;;;;8.48;2.78;;;;;;;22.66;52.73;101299.66;6246929;22;20003;-68
2023/07/14 11:35:58;;;;;;;4.00;1.98;;;;;;;22.48;50.58;101298.84;6247123;22;20023;-68
2023/07/14 11:38:33;;;;;;;4.20;2.17;;;;;;;22.53;52.98;101295.91;6246065;22;20003;-68
2023/07/14 11:41:00;;;;;;;6.75;2.67;;;;;;;22.58;52.62;101301.88;6246509;22;20395;-68
2023/07/14 11:43:31;;;;;;;5.55;2.50;;;;;;;22.63;51.73;101305.16;6221904;22;20007;-68
2023/07/14 11:46:15;;;;;;;4.60;2.63;;;;;;;22.70;51.67;101305.66;6247001;22;20003;-68
2023/07/14 11:48:58;;;;;;;4.38;2.38;;;;;;;22.82;54.22;101297.81;6246531;22;20004;-68
2023/07/14 11:51:47;;;;;;;4.95;2.47;;;;;;;22.97;53.57;101285.44;6247143;22;20010;-68
2023/07/14 11:54:23;;;;;;;6.00;3.00;;;;;;;23.12;52.76;101278.34;6244948;22;20045;-68
2023/07/14 11:57:16;;;;;;;5.50;2.50;;;;;;;23.35;53.73;101277.00;6246980;22;20318;-68
2023/07/14 12:00:17;;;;;;;4.03;2.83;;;;;;;23.41;52.72;101270.44;6247164;22;20003;-68
2023/07/14 12:02:59;;;;;;;3.65;2.42;;;;;;;23.21;51.18;101266.28;6246510;22;20079;-68
2023/07/14 12:05:30;;;;;;;4.95;2.10;;;;;;;23.36;53.13;101272.53;6246692;22;20000;-69
2023/07/14 12:08:04;;;;;;;5.93;2.30;;;;;;;23.45;51.28;101266.63;6247036;22;20003;-68
2023/07/14 12:10:40;;;;;;;6.78;2.55;;;;;;;23.45;50.81;101261.28;6246412;22;20046;-69
2023/07/14 12:13:34;;;;;;;6.53;2.10;;;;;;;23.50;51.40;101261.00;6246197;22;20082;-68
2023/07/14 12:16:00;;;;;;;5.28;2.45;;;;;;;23.52;50.99;101253.78;6246862;22;20011;-68
2023/07/14 12:18:29;;;;;;;5.57;2.40;;;;;;;23.35;48.95;101244.06;6246756;22;20353;-69
2023/07/14 12:21:16;;;;;;;4.57;2.38;;;;;;;23.20;50.37;101244.97;6247414;22;20077;-69
2023/07/14 12:23:43;;;;;;;6.40;2.35;;;;;;;23.19;50.53;101233.44;6245710;22;20003;-68
2023/07/14 12:26:35;;;;;;;9.13;2.65;;;;;;;23.23;48.94;101234.09;6246944;22;20060;-69
2023/07/14 12:29:04;;;;;;;7.00;2.47;;;;;;;23.28;49.81;101232.03;6246982;22;20002;-68
2023/07/14 12:31:35;;;;;;;4.93;2.03;;;;;;;23.41;51.07;101222.31;6222778;22;20418;-68
2023/07/14 12:34:00;;;;;;;5.60;2.35;;;;;;;23.60;50.48;101218.53;6244976;22;20008;-68